createdAt,value
2019-04-30T00:00:10.299Z,16.50
2019-04-30T00:02:55.250Z,16.40
2019-04-30T00:05:24.790Z,16.30
2019-04-30T00:07:55.068Z,16.20
2019-04-30T00:10:20.557Z,16.10
2019-04-30T00:12:47.901Z,16.10
2019-04-30T00:15:16.154Z,15.90
2019-04-30T00:17:45.626Z,15.80
2019-04-30T00:20:12.732Z,15.70
2019-04-30T00:22:47.100Z,15.70
2019-04-30T00:25:09.068Z,15.70
2019-04-30T00:27:35.728Z,15.70
2019-04-30T00:30:08.919Z,15.70
2019-04-30T00:32:39.297Z,15.60
2019-04-30T00:35:07.343Z,15.50
2019-04-30T00:37:35.260Z,15.50
2019-04-30T00:40:05.588Z,15.40
2019-04-30T00:42:32.698Z,15.30
2019-04-30T00:45:03.781Z,15.40
2019-04-30T00:47:28.443Z,15.30
2019-04-30T00:49:57.560Z,15.30
2019-04-30T00:52:25.309Z,15.20
2019-04-30T00:54:52.364Z,15.30
2019-04-30T00:57:19.167Z,15.10
2019-04-30T00:59:48.001Z,15.10
2019-04-30T01:02:35.747Z,15.10
2019-04-30T01:05:10.817Z,15.00
2019-04-30T01:07:39.552Z,15.10
2019-04-30T01:10:08.579Z,15.10
2019-04-30T01:12:39.086Z,15.20
2019-04-30T01:15:06.503Z,15.20
2019-04-30T01:17:34.076Z,15.30
2019-04-30T01:20:01.760Z,15.40
2019-04-30T01:22:32.742Z,15.40
2019-04-30T01:25:02.901Z,15.30
2019-04-30T01:27:28.406Z,15.20
2019-04-30T01:29:56.291Z,15.20
2019-04-30T01:32:23.400Z,15.10
2019-04-30T01:34:53.877Z,15.00
2019-04-30T01:37:24.700Z,14.90
2019-04-30T01:39:49.174Z,14.80
2019-04-30T01:42:18.377Z,14.70
2019-04-30T01:44:50.561Z,14.60
2019-04-30T01:47:13.808Z,14.50
2019-04-30T01:49:42.646Z,14.50
2019-04-30T01:52:09.636Z,14.40
2019-04-30T01:54:36.605Z,14.30
2019-04-30T01:57:21.644Z,14.30
2019-04-30T02:00:01.859Z,14.30
2019-04-30T02:02:30.888Z,14.00
2019-04-30T02:04:59.187Z,14.10
2019-04-30T02:07:26.448Z,14.20
2019-04-30T02:09:53.327Z,14.20
2019-04-30T02:12:21.848Z,14.30
2019-04-30T02:14:49.787Z,14.30
2019-04-30T02:17:19.264Z,14.40
2019-04-30T02:19:56.456Z,14.40
2019-04-30T02:22:15.471Z,14.30
2019-04-30T02:24:42.545Z,14.40
2019-04-30T02:27:09.423Z,14.40
2019-04-30T02:29:36.080Z,14.40
2019-04-30T02:32:03.151Z,14.40
2019-04-30T02:34:34.557Z,14.30
2019-04-30T02:37:03.246Z,14.20
2019-04-30T02:39:30.315Z,14.10
2019-04-30T02:41:59.787Z,14.00
2019-04-30T02:44:29.306Z,13.90
2019-04-30T02:47:00.306Z,13.90
2019-04-30T02:49:30.496Z,14.00
2019-04-30T02:52:01.552Z,14.00
2019-04-30T02:54:31.673Z,14.10
2019-04-30T02:57:00.263Z,14.10
2019-04-30T02:59:27.051Z,14.10
2019-04-30T03:01:53.845Z,14.00
2019-04-30T03:04:20.630Z,14.00
2019-04-30T03:06:49.967Z,14.00
2019-04-30T03:09:16.048Z,14.00
2019-04-30T03:11:42.733Z,14.00
2019-04-30T03:14:10.219Z,14.10
2019-04-30T03:16:46.091Z,14.00
2019-04-30T03:19:23.409Z,14.10
2019-04-30T03:21:52.157Z,14.00
2019-04-30T03:24:20.145Z,14.10
2019-04-30T03:26:49.690Z,14.10
2019-04-30T03:29:15.680Z,14.20
2019-04-30T03:31:44.962Z,14.10
2019-04-30T03:34:17.592Z,14.20
2019-04-30T03:36:40.615Z,14.30
2019-04-30T03:39:10.615Z,14.40
2019-04-30T03:41:36.439Z,14.30
2019-04-30T03:44:17.172Z,14.20
2019-04-30T03:46:32.002Z,14.10
2019-04-30T03:49:00.146Z,13.90
2019-04-30T03:51:29.779Z,13.80
2019-04-30T03:53:56.429Z,13.80
2019-04-30T03:56:23.398Z,13.70
2019-04-30T03:58:50.435Z,13.70
2019-04-30T04:01:22.224Z,13.60
2019-04-30T04:04:06.204Z,13.70
2019-04-30T04:06:40.773Z,13.70
2019-04-30T04:09:24.513Z,13.80
2019-04-30T04:11:51.317Z,13.80
2019-04-30T04:14:19.779Z,13.80
2019-04-30T04:16:50.410Z,13.80
2019-04-30T04:19:16.051Z,13.80
2019-04-30T04:21:42.870Z,13.80
2019-04-30T04:24:10.627Z,13.80
2019-04-30T04:26:40.776Z,13.90
2019-04-30T04:29:09.415Z,13.90
2019-04-30T04:31:35.491Z,13.90
2019-04-30T04:34:02.423Z,13.90
2019-04-30T04:36:30.172Z,13.90
2019-04-30T04:38:59.936Z,13.80
2019-04-30T04:41:26.209Z,13.70
2019-04-30T04:43:53.214Z,13.70
2019-04-30T04:46:20.693Z,13.70
2019-04-30T04:48:49.453Z,13.70
2019-04-30T04:51:31.312Z,13.70
2019-04-30T04:53:45.472Z,13.70
2019-04-30T04:56:12.897Z,13.80
2019-04-30T04:58:40.309Z,13.70
2019-04-30T05:01:09.055Z,13.70
2019-04-30T05:03:39.930Z,13.60
2019-04-30T05:06:06.673Z,13.70
2019-04-30T05:08:33.455Z,13.70
2019-04-30T05:11:00.259Z,13.50
2019-04-30T05:13:28.950Z,13.60
2019-04-30T05:15:56.133Z,13.60
2019-04-30T05:18:23.131Z,13.60
2019-04-30T05:20:50.237Z,13.60
2019-04-30T05:23:17.118Z,13.50
2019-04-30T05:25:44.185Z,13.40
2019-04-30T05:28:10.959Z,13.30
2019-04-30T05:30:39.327Z,13.20
2019-04-30T05:33:06.561Z,13.30
2019-04-30T05:35:33.432Z,13.30
2019-04-30T05:38:00.771Z,13.30
2019-04-30T05:40:28.769Z,13.30
2019-04-30T05:42:56.068Z,13.40
2019-04-30T05:45:22.940Z,13.50
2019-04-30T05:47:50.600Z,13.50
2019-04-30T05:50:19.978Z,13.50
2019-04-30T05:52:46.949Z,13.50
2019-04-30T05:55:13.758Z,13.60
2019-04-30T05:57:52.991Z,13.70
2019-04-30T06:00:10.335Z,13.70
2019-04-30T06:02:39.722Z,13.80
2019-04-30T06:05:08.772Z,13.90
2019-04-30T06:07:35.789Z,13.90
2019-04-30T06:10:06.195Z,13.90
2019-04-30T06:12:32.879Z,13.80
2019-04-30T06:14:59.734Z,13.70
2019-04-30T06:17:30.311Z,13.80
2019-04-30T06:19:59.079Z,13.80
2019-04-30T06:22:26.369Z,13.90
2019-04-30T06:24:53.062Z,13.90
2019-04-30T06:27:20.234Z,14.00
2019-04-30T06:29:48.985Z,14.00
2019-04-30T06:32:18.472Z,14.10
2019-04-30T06:34:46.581Z,13.90
2019-04-30T06:37:13.936Z,14.10
2019-04-30T06:39:40.726Z,14.10
2019-04-30T06:42:12.252Z,14.20
2019-04-30T06:44:41.345Z,14.20
2019-04-30T06:47:09.075Z,14.20
2019-04-30T06:49:36.759Z,14.30
2019-04-30T06:52:03.862Z,14.30
2019-04-30T06:54:30.652Z,14.30
2019-04-30T06:56:59.560Z,14.40
2019-04-30T06:59:26.094Z,14.30
2019-04-30T07:01:52.879Z,14.40
2019-04-30T07:04:19.687Z,14.50
2019-04-30T07:06:46.523Z,14.50
2019-04-30T07:09:43.606Z,14.60
2019-04-30T07:12:03.876Z,14.70
2019-04-30T07:14:31.546Z,14.70
2019-04-30T07:16:59.427Z,14.80
2019-04-30T07:19:33.031Z,14.80
2019-04-30T07:21:55.224Z,14.90
2019-04-30T07:24:22.041Z,14.90
2019-04-30T07:26:49.069Z,15.10
2019-04-30T07:29:16.029Z,15.10
2019-04-30T07:31:42.817Z,15.10
2019-04-30T07:34:09.654Z,15.20
2019-04-30T07:36:48.307Z,15.20
2019-04-30T07:39:09.829Z,15.30
2019-04-30T07:41:35.692Z,15.30
2019-04-30T07:44:02.456Z,15.30
2019-04-30T07:46:30.145Z,15.40
2019-04-30T07:49:00.004Z,15.50
2019-04-30T07:51:30.885Z,15.50
2019-04-30T07:53:55.709Z,15.60
2019-04-30T07:56:27.847Z,15.60
2019-04-30T07:58:51.332Z,15.60
2019-04-30T08:01:19.601Z,15.70
2019-04-30T08:03:48.986Z,15.80
2019-04-30T08:06:16.111Z,15.80
2019-04-30T08:08:43.019Z,15.80
2019-04-30T08:11:22.750Z,15.90
2019-04-30T08:13:40.738Z,16.00
2019-04-30T08:16:09.678Z,16.00
2019-04-30T08:18:36.738Z,16.10
2019-04-30T08:21:03.420Z,16.10
2019-04-30T08:23:34.767Z,16.20
2019-04-30T08:25:58.966Z,16.20
2019-04-30T08:28:25.774Z,16.30
2019-04-30T08:30:52.564Z,16.40
2019-04-30T08:33:19.530Z,16.40
2019-04-30T08:35:46.370Z,16.50
2019-04-30T08:38:13.356Z,16.50
2019-04-30T08:40:52.812Z,16.50
2019-04-30T08:43:09.517Z,16.60
2019-04-30T08:45:38.458Z,16.70
2019-04-30T08:48:05.326Z,16.70
2019-04-30T08:50:32.008Z,16.70
2019-04-30T08:52:59.627Z,16.80
2019-04-30T08:55:30.334Z,16.80
2019-04-30T08:58:07.545Z,16.90
2019-04-30T09:00:25.299Z,17.00
2019-04-30T09:02:52.046Z,17.00
2019-04-30T09:05:23.460Z,17.10
2019-04-30T09:07:50.417Z,17.10
2019-04-30T09:10:19.098Z,17.20
2019-04-30T09:12:46.030Z,17.20
2019-04-30T09:15:12.691Z,17.40
2019-04-30T09:17:39.842Z,17.30
2019-04-30T09:20:06.733Z,17.40
2019-04-30T09:22:33.527Z,17.60
2019-04-30T09:25:00.393Z,17.60
2019-04-30T09:27:27.197Z,17.60
2019-04-30T09:29:54.077Z,17.60
2019-04-30T09:32:21.012Z,17.70
2019-04-30T09:34:48.828Z,17.70
2019-04-30T09:37:18.508Z,17.80
2019-04-30T09:39:45.064Z,17.90
2019-04-30T09:42:11.700Z,17.90
2019-04-30T09:44:39.024Z,18.00
2019-04-30T09:47:06.350Z,18.10
2019-04-30T09:49:33.123Z,18.10
2019-04-30T09:52:00.409Z,18.20
2019-04-30T09:54:29.015Z,18.20
2019-04-30T09:56:56.565Z,18.30
2019-04-30T09:59:23.288Z,18.30
2019-04-30T10:01:50.100Z,18.50
2019-04-30T10:04:19.274Z,18.50
2019-04-30T10:06:45.706Z,18.50
2019-04-30T10:09:14.188Z,18.70
2019-04-30T10:11:40.885Z,18.70
2019-04-30T10:14:07.966Z,18.80
2019-04-30T10:16:36.797Z,18.80
2019-04-30T10:19:03.901Z,18.90
2019-04-30T10:21:30.855Z,19.10
2019-04-30T10:24:11.839Z,19.10
2019-04-30T10:26:27.191Z,19.20
2019-04-30T10:28:54.598Z,19.30
2019-04-30T10:31:21.787Z,19.40
2019-04-30T10:33:48.672Z,19.40
2019-04-30T10:36:15.840Z,19.50
2019-04-30T10:38:42.908Z,19.60
2019-04-30T10:41:09.992Z,19.70
2019-04-30T10:43:39.192Z,19.70
2019-04-30T10:46:05.530Z,19.80
2019-04-30T10:48:32.420Z,19.90
2019-04-30T10:50:59.344Z,20.00
2019-04-30T10:53:26.305Z,20.10
2019-04-30T10:55:53.341Z,20.20
2019-04-30T10:58:20.193Z,20.30
2019-04-30T11:00:47.243Z,20.40
2019-04-30T11:03:20.071Z,20.50
2019-04-30T11:05:43.041Z,20.50
2019-04-30T11:08:09.892Z,20.60
2019-04-30T11:10:36.697Z,20.80
2019-04-30T11:13:03.774Z,20.80
2019-04-30T11:15:30.598Z,20.90
2019-04-30T11:17:59.740Z,21.00
2019-04-30T11:20:26.961Z,21.10
2019-04-30T11:22:54.895Z,21.10
2019-04-30T11:25:22.332Z,21.20
2019-04-30T11:27:50.608Z,21.30
2019-04-30T11:30:23.940Z,21.50
2019-04-30T11:32:48.115Z,21.50
2019-04-30T11:35:15.369Z,21.70
2019-04-30T11:37:42.433Z,21.80
2019-04-30T11:40:10.809Z,21.90
2019-04-30T11:42:37.612Z,22.00
2019-04-30T11:45:08.565Z,22.20
2019-04-30T11:47:36.885Z,22.30
2019-04-30T11:50:09.104Z,22.40
2019-04-30T11:52:36.193Z,22.60
2019-04-30T11:55:09.646Z,22.60
2019-04-30T11:57:37.189Z,22.70
2019-04-30T12:00:10.747Z,22.60
2019-04-30T12:02:39.958Z,22.60
2019-04-30T12:05:08.663Z,22.50
2019-04-30T12:07:44.089Z,22.50
2019-04-30T12:10:13.018Z,22.50
2019-04-30T12:12:39.811Z,22.50
2019-04-30T12:15:09.198Z,22.50
2019-04-30T12:17:36.513Z,22.50
2019-04-30T12:20:08.486Z,22.60
2019-04-30T12:22:35.327Z,22.70
2019-04-30T12:25:05.526Z,22.70
2019-04-30T12:27:31.810Z,22.70
2019-04-30T12:29:59.467Z,22.70
2019-04-30T12:32:26.590Z,22.80
2019-04-30T12:34:53.415Z,22.70
2019-04-30T12:37:20.043Z,22.70
2019-04-30T12:39:49.560Z,22.70
2019-04-30T12:42:16.379Z,22.70
2019-04-30T12:44:43.159Z,22.70
2019-04-30T12:47:10.077Z,22.70
2019-04-30T12:49:45.328Z,22.70
2019-04-30T12:52:16.518Z,22.70
2019-04-30T12:54:45.095Z,22.70
2019-04-30T12:57:16.495Z,22.70
2019-04-30T12:59:43.208Z,22.70
2019-04-30T13:02:10.164Z,22.70
2019-04-30T13:04:39.210Z,22.80
2019-04-30T13:07:06.308Z,22.80
2019-04-30T13:09:34.145Z,22.90
2019-04-30T13:12:02.287Z,22.90
2019-04-30T13:14:30.672Z,22.90
2019-04-30T13:16:59.019Z,23.00
2019-04-30T13:19:26.184Z,23.00
2019-04-30T13:21:53.387Z,23.20
2019-04-30T13:24:20.251Z,23.20
2019-04-30T13:26:49.419Z,23.30
2019-04-30T13:29:18.021Z,23.30
2019-04-30T13:31:44.812Z,23.30
2019-04-30T13:34:30.298Z,23.40
2019-04-30T13:36:59.292Z,23.40
2019-04-30T13:39:27.088Z,23.40
2019-04-30T13:42:01.962Z,23.50
2019-04-30T13:44:30.557Z,23.60
2019-04-30T13:46:57.403Z,23.60
2019-04-30T13:49:24.304Z,23.70
2019-04-30T13:51:51.105Z,23.70
2019-04-30T13:54:17.908Z,23.70
2019-04-30T13:56:44.720Z,23.80
2019-04-30T13:59:11.530Z,23.90
2019-04-30T14:01:39.044Z,24.10
2019-04-30T14:04:10.445Z,24.20
2019-04-30T14:06:39.369Z,24.20
2019-04-30T14:09:08.892Z,24.20
2019-04-30T14:11:35.715Z,24.30
2019-04-30T14:14:02.825Z,24.40
2019-04-30T14:16:29.886Z,24.40
2019-04-30T14:18:58.496Z,24.40
2019-04-30T14:21:34.756Z,24.40
2019-04-30T14:23:54.238Z,24.60
2019-04-30T14:26:21.144Z,24.60
2019-04-30T14:28:48.979Z,24.70
2019-04-30T14:31:16.140Z,24.80
2019-04-30T14:33:43.189Z,24.80
2019-04-30T14:36:10.382Z,24.80
2019-04-30T14:38:40.490Z,24.70
2019-04-30T14:41:06.707Z,24.70
2019-04-30T14:43:39.333Z,24.70
2019-04-30T14:46:05.277Z,24.60
2019-04-30T14:48:43.669Z,24.60
2019-04-30T14:51:11.156Z,24.50
2019-04-30T14:53:40.240Z,24.40
2019-04-30T14:56:29.377Z,24.30
2019-04-30T14:59:00.680Z,24.20
2019-04-30T15:01:33.757Z,24.10
2019-04-30T15:04:00.888Z,24.00
2019-04-30T15:06:27.711Z,23.90
2019-04-30T15:08:55.056Z,23.80
2019-04-30T15:11:21.913Z,23.80
2019-04-30T15:13:49.434Z,23.70
2019-04-30T15:16:16.496Z,23.70
2019-04-30T15:18:43.208Z,23.60
2019-04-30T15:21:09.987Z,23.60
2019-04-30T15:23:58.875Z,23.60
2019-04-30T15:26:25.037Z,23.50
2019-04-30T15:28:50.968Z,23.60
2019-04-30T15:31:18.506Z,23.50
2019-04-30T15:33:47.259Z,23.60
2019-04-30T15:36:14.334Z,23.60
2019-04-30T15:38:55.533Z,23.60
2019-04-30T15:41:22.342Z,23.60
2019-04-30T15:43:49.130Z,23.60
2019-04-30T15:46:16.049Z,23.60
2019-04-30T15:48:43.044Z,23.60
2019-04-30T15:51:10.112Z,23.70
2019-04-30T15:53:36.931Z,23.70
2019-04-30T15:56:03.914Z,23.70
2019-04-30T15:58:32.526Z,23.60
2019-04-30T16:01:00.011Z,23.80
2019-04-30T16:03:37.461Z,23.90
2019-04-30T16:06:04.601Z,23.90
2019-04-30T16:08:33.193Z,23.90
2019-04-30T16:11:00.617Z,24.00
2019-04-30T16:13:32.371Z,24.20
2019-04-30T16:15:59.239Z,24.40
2019-04-30T16:18:28.825Z,24.60
2019-04-30T16:20:56.706Z,24.70
2019-04-30T16:23:23.724Z,24.80
2019-04-30T16:25:50.580Z,24.80
2019-04-30T16:28:19.463Z,24.70
2019-04-30T16:30:46.587Z,24.70
2019-04-30T16:33:13.461Z,24.60
2019-04-30T16:35:40.310Z,24.50
2019-04-30T16:38:07.133Z,24.40
2019-04-30T16:40:34.657Z,24.30
2019-04-30T16:43:02.400Z,24.20
2019-04-30T16:45:29.578Z,24.10
2019-04-30T16:47:56.643Z,24.10
2019-04-30T16:50:23.783Z,24.00
2019-04-30T16:52:50.825Z,23.90
2019-04-30T16:55:18.135Z,23.90
2019-04-30T16:57:45.464Z,23.80
2019-04-30T17:00:15.794Z,23.80
2019-04-30T17:02:44.416Z,23.80
2019-04-30T17:05:16.900Z,23.80
2019-04-30T17:07:54.497Z,23.80
2019-04-30T17:10:30.716Z,23.90
2019-04-30T17:13:09.285Z,24.10
2019-04-30T17:15:38.256Z,24.30
2019-04-30T17:18:05.008Z,24.50
2019-04-30T17:20:31.955Z,24.60
2019-04-30T17:22:59.528Z,24.70
2019-04-30T17:25:26.865Z,24.80
2019-04-30T17:27:53.788Z,25.00
2019-04-30T17:30:20.959Z,25.00
2019-04-30T17:32:50.019Z,25.20
2019-04-30T17:35:18.896Z,25.10
2019-04-30T17:37:45.863Z,25.00
2019-04-30T17:40:14.032Z,25.00
2019-04-30T17:42:40.967Z,25.00
2019-04-30T17:45:09.697Z,24.90
2019-04-30T17:47:36.600Z,24.80
2019-04-30T17:50:05.701Z,24.80
2019-04-30T17:52:32.447Z,24.90
2019-04-30T17:54:59.625Z,25.00
2019-04-30T17:57:32.261Z,25.00
2019-04-30T17:59:55.542Z,24.90
2019-04-30T18:02:24.183Z,24.70
2019-04-30T18:04:51.294Z,24.60
2019-04-30T18:07:19.797Z,24.50
2019-04-30T18:09:48.715Z,24.50
2019-04-30T18:12:15.388Z,24.40
2019-04-30T18:14:42.167Z,24.30
2019-04-30T18:17:09.387Z,24.10
2019-04-30T18:19:38.628Z,24.00
2019-04-30T18:22:14.793Z,23.90
2019-04-30T18:24:59.736Z,23.70
2019-04-30T18:27:29.460Z,23.50
2019-04-30T18:29:56.393Z,23.40
2019-04-30T18:32:25.042Z,23.30
2019-04-30T18:34:51.825Z,23.10
2019-04-30T18:37:18.965Z,23.00
2019-04-30T18:39:46.172Z,22.70
2019-04-30T18:42:13.465Z,22.50
2019-04-30T18:44:40.452Z,22.40
2019-04-30T18:47:09.056Z,22.30
2019-04-30T18:49:36.268Z,22.10
2019-04-30T18:52:03.927Z,22.10
2019-04-30T18:54:30.790Z,22.00
2019-04-30T18:56:58.955Z,22.00
2019-04-30T18:59:26.390Z,21.70
2019-04-30T19:01:53.423Z,21.70
2019-04-30T19:04:20.195Z,21.40
2019-04-30T19:06:47.096Z,21.50
2019-04-30T19:09:24.965Z,21.50
2019-04-30T19:12:11.239Z,21.40
2019-04-30T19:14:59.038Z,21.40
2019-04-30T19:17:36.543Z,21.30
2019-04-30T19:20:23.564Z,21.20
2019-04-30T19:22:50.490Z,21.20
2019-04-30T19:25:19.097Z,21.00
2019-04-30T19:27:45.941Z,20.90
2019-04-30T19:30:14.170Z,20.90
2019-04-30T19:32:41.231Z,20.90
2019-04-30T19:35:09.207Z,20.60
2019-04-30T19:37:36.038Z,20.60
2019-04-30T19:40:08.939Z,20.60
2019-04-30T19:42:36.302Z,20.40
2019-04-30T19:45:10.126Z,20.30
2019-04-30T19:47:33.603Z,20.20
2019-04-30T19:50:00.524Z,20.20
2019-04-30T19:52:29.476Z,20.20
2019-04-30T19:54:56.409Z,20.20
2019-04-30T19:57:23.716Z,20.20
2019-04-30T19:59:50.814Z,20.30
2019-04-30T20:02:19.105Z,20.30
2019-04-30T20:04:46.776Z,20.30
2019-04-30T20:07:13.607Z,20.30
2019-04-30T20:09:42.975Z,20.30
2019-04-30T20:12:10.664Z,20.30
2019-04-30T20:14:39.100Z,20.20
2019-04-30T20:17:06.171Z,20.20
2019-04-30T20:19:33.086Z,20.20
2019-04-30T20:22:00.423Z,20.10
2019-04-30T20:24:29.353Z,20.10
2019-04-30T20:27:04.986Z,20.10
2019-04-30T20:29:24.997Z,20.00
2019-04-30T20:31:51.831Z,19.90
2019-04-30T20:34:19.166Z,19.80
2019-04-30T20:36:46.313Z,19.70
2019-04-30T20:39:16.025Z,19.60
2019-04-30T20:41:43.446Z,19.60
2019-04-30T20:44:10.619Z,19.50
2019-04-30T20:46:39.317Z,19.50
2019-04-30T20:49:06.474Z,19.40
2019-04-30T20:51:33.315Z,19.40
2019-04-30T20:54:00.498Z,19.40
2019-04-30T20:56:29.161Z,18.50
2019-04-30T20:58:59.838Z,19.10
2019-04-30T21:01:25.578Z,19.10
2019-04-30T21:03:52.469Z,19.10
2019-04-30T21:06:19.823Z,19.00
2019-04-30T21:08:47.025Z,19.00
2019-04-30T21:11:13.846Z,18.90
2019-04-30T21:13:40.741Z,18.90
2019-04-30T21:16:07.461Z,18.90
2019-04-30T21:18:34.430Z,18.90
2019-04-30T21:21:01.295Z,18.70
2019-04-30T21:23:29.253Z,18.40
2019-04-30T21:25:58.766Z,18.40
2019-04-30T21:28:25.772Z,18.30
2019-04-30T21:30:52.581Z,18.30
2019-04-30T21:33:21.360Z,18.30
2019-04-30T21:35:56.086Z,18.20
2019-04-30T21:38:23.215Z,18.10
2019-04-30T21:40:50.389Z,18.20
2019-04-30T21:43:17.123Z,18.00
2019-04-30T21:45:44.103Z,17.80
2019-04-30T21:48:11.254Z,17.70
2019-04-30T21:50:39.711Z,17.60
2019-04-30T21:53:09.695Z,17.50
2019-04-30T21:55:36.240Z,17.40
2019-04-30T21:58:03.187Z,17.30
2019-04-30T22:00:33.862Z,17.30
2019-04-30T22:03:01.194Z,17.20
2019-04-30T22:05:28.039Z,17.20
2019-04-30T22:07:55.345Z,17.10
2019-04-30T22:10:22.508Z,17.00
2019-04-30T22:12:49.577Z,17.00
2019-04-30T22:15:16.639Z,17.10
2019-04-30T22:17:43.440Z,17.30
2019-04-30T22:20:10.887Z,17.30
2019-04-30T22:22:39.190Z,17.40
2019-04-30T22:25:08.998Z,17.40
2019-04-30T22:27:36.364Z,17.50
2019-04-30T22:30:07.773Z,17.60
2019-04-30T22:32:35.013Z,17.60
2019-04-30T22:35:23.965Z,17.60
2019-04-30T22:37:56.233Z,17.70
2019-04-30T22:40:26.443Z,17.60
2019-04-30T22:42:55.081Z,17.60
2019-04-30T22:45:26.992Z,17.50
2019-04-30T22:47:58.900Z,17.40
2019-04-30T22:50:32.851Z,17.30
2019-04-30T22:53:04.612Z,17.20
2019-04-30T22:55:31.759Z,17.00
2019-04-30T22:58:01.772Z,16.90
2019-04-30T23:00:31.132Z,16.90
2019-04-30T23:03:02.343Z,16.80
2019-04-30T23:05:29.358Z,16.80
2019-04-30T23:07:59.672Z,16.80
2019-04-30T23:10:36.248Z,16.70
2019-04-30T23:13:07.085Z,16.80
2019-04-30T23:15:34.467Z,16.70
2019-04-30T23:18:01.685Z,16.70
2019-04-30T23:20:29.146Z,16.70
2019-04-30T23:22:56.797Z,16.60
2019-04-30T23:25:26.198Z,16.60
2019-04-30T23:27:53.029Z,16.60
2019-04-30T23:30:20.425Z,16.60
2019-04-30T23:32:47.529Z,16.60
2019-04-30T23:35:14.583Z,16.50
2019-04-30T23:37:42.329Z,16.50
2019-04-30T23:40:21.882Z,16.50
2019-04-30T23:42:49.378Z,16.30
2019-04-30T23:45:16.465Z,16.30
2019-04-30T23:47:43.338Z,16.10
2019-04-30T23:50:10.573Z,16.10
2019-04-30T23:52:37.660Z,16.00
2019-04-30T23:55:05.067Z,16.00
2019-04-30T23:57:32.109Z,16.00
2019-04-30T23:59:58.785Z,16.00
